sensor_id;sensor_type;location;lat;lon;timestamp;pressure;altitude;pressure_sealevel;temperature
68127;BMP180;54931;52.098;21.006;2022-07-29T00:01:50;100800.80;;;12.80
68127;BMP180;54931;52.098;21.006;2022-07-29T00:04:19;100797.00;;;12.80
68127;BMP180;54931;52.098;21.006;2022-07-29T00:06:46;100797.60;;;12.80
68127;BMP180;54931;52.098;21.006;2022-07-29T00:09:14;100798.40;;;12.80
68127;BMP180;54931;52.098;21.006;2022-07-29T00:11:41;100798.60;;;12.70
68127;BMP180;54931;52.098;21.006;2022-07-29T00:14:09;100802.00;;;12.64
68127;BMP180;54931;52.098;21.006;2022-07-29T00:16:36;100800.20;;;12.64
68127;BMP180;54931;52.098;21.006;2022-07-29T00:19:04;100807.80;;;12.70
68127;BMP180;54931;52.098;21.006;2022-07-29T00:21:31;100810.80;;;12.80
68127;BMP180;54931;52.098;21.006;2022-07-29T00:23:58;100806.80;;;12.70
68127;BMP180;54931;52.098;21.006;2022-07-29T00:26:25;100809.20;;;12.60
68127;BMP180;54931;52.098;21.006;2022-07-29T00:28:54;100814.00;;;12.60
68127;BMP180;54931;52.098;21.006;2022-07-29T00:31:21;100813.60;;;12.58
68127;BMP180;54931;52.098;21.006;2022-07-29T00:33:48;100811.40;;;12.60
68127;BMP180;54931;52.098;21.006;2022-07-29T00:36:15;100808.60;;;12.56
68127;BMP180;54931;52.098;21.006;2022-07-29T00:38:43;100807.80;;;12.50
68127;BMP180;54931;52.098;21.006;2022-07-29T00:41:12;100812.20;;;12.50
68127;BMP180;54931;52.098;21.006;2022-07-29T00:43:39;100805.80;;;12.60
68127;BMP180;54931;52.098;21.006;2022-07-29T00:46:07;100804.40;;;12.60
68127;BMP180;54931;52.098;21.006;2022-07-29T00:48:35;100800.20;;;12.60
68127;BMP180;54931;52.098;21.006;2022-07-29T00:51:05;100797.00;;;12.60
68127;BMP180;54931;52.098;21.006;2022-07-29T00:53:32;100797.80;;;12.60
68127;BMP180;54931;52.098;21.006;2022-07-29T00:56:00;100792.00;;;12.60
68127;BMP180;54931;52.098;21.006;2022-07-29T00:58:28;100791.20;;;12.60
68127;BMP180;54931;52.098;21.006;2022-07-29T01:00:55;100794.00;;;12.60
68127;BMP180;54931;52.098;21.006;2022-07-29T01:03:22;100795.40;;;12.50
68127;BMP180;54931;52.098;21.006;2022-07-29T01:05:50;100795.60;;;12.50
68127;BMP180;54931;52.098;21.006;2022-07-29T01:08:20;100793.20;;;12.60
68127;BMP180;54931;52.098;21.006;2022-07-29T01:11:02;100792.20;;;12.66
68127;BMP180;54931;52.098;21.006;2022-07-29T01:13:32;100790.80;;;12.70
68127;BMP180;54931;52.098;21.006;2022-07-29T01:16:11;100791.00;;;12.60
68127;BMP180;54931;52.098;21.006;2022-07-29T01:18:46;100793.80;;;12.70
68127;BMP180;54931;52.098;21.006;2022-07-29T01:21:54;100796.20;;;12.72
68127;BMP180;54931;52.098;21.006;2022-07-29T01:30:55;100797.20;;;12.70
68127;BMP180;54931;52.098;21.006;2022-07-29T01:33:25;100798.20;;;12.70
68127;BMP180;54931;52.098;21.006;2022-07-29T01:36:18;100798.80;;;12.80
68127;BMP180;54931;52.098;21.006;2022-07-29T01:41:37;100800.20;;;12.70
68127;BMP180;54931;52.098;21.006;2022-07-29T01:44:32;100799.20;;;12.70
68127;BMP180;54931;52.098;21.006;2022-07-29T01:47:10;100796.20;;;12.70
68127;BMP180;54931;52.098;21.006;2022-07-29T01:49:45;100796.80;;;12.60
68127;BMP180;54931;52.098;21.006;2022-07-29T01:52:23;100794.20;;;12.60
68127;BMP180;54931;52.098;21.006;2022-07-29T01:54:57;100801.20;;;12.60
68127;BMP180;54931;52.098;21.006;2022-07-29T01:57:29;100802.80;;;12.60
68127;BMP180;54931;52.098;21.006;2022-07-29T01:59:59;100800.00;;;12.60
68127;BMP180;54931;52.098;21.006;2022-07-29T02:02:30;100802.80;;;12.50
68127;BMP180;54931;52.098;21.006;2022-07-29T02:05:02;100806.20;;;12.50
68127;BMP180;54931;52.098;21.006;2022-07-29T02:07:32;100806.80;;;12.52
68127;BMP180;54931;52.098;21.006;2022-07-29T02:10:03;100809.40;;;12.60
68127;BMP180;54931;52.098;21.006;2022-07-29T02:12:32;100807.80;;;12.50
68127;BMP180;54931;52.098;21.006;2022-07-29T02:15:03;100813.00;;;12.40
68127;BMP180;54931;52.098;21.006;2022-07-29T02:17:46;100805.60;;;12.40
68127;BMP180;54931;52.098;21.006;2022-07-29T02:20:16;100806.20;;;12.40
68127;BMP180;54931;52.098;21.006;2022-07-29T02:22:45;100808.20;;;12.40
68127;BMP180;54931;52.098;21.006;2022-07-29T02:25:15;100805.00;;;12.40
68127;BMP180;54931;52.098;21.006;2022-07-29T02:27:44;100800.20;;;12.38
68127;BMP180;54931;52.098;21.006;2022-07-29T02:30:13;100798.60;;;12.30
68127;BMP180;54931;52.098;21.006;2022-07-29T02:32:43;100802.00;;;12.30
68127;BMP180;54931;52.098;21.006;2022-07-29T02:35:14;100802.20;;;12.40
68127;BMP180;54931;52.098;21.006;2022-07-29T02:37:44;100801.00;;;12.30
68127;BMP180;54931;52.098;21.006;2022-07-29T02:40:35;100804.60;;;12.26
68127;BMP180;54931;52.098;21.006;2022-07-29T02:43:06;100807.40;;;12.30
68127;BMP180;54931;52.098;21.006;2022-07-29T02:45:34;100804.60;;;12.30
68127;BMP180;54931;52.098;21.006;2022-07-29T02:48:10;100804.60;;;12.30
68127;BMP180;54931;52.098;21.006;2022-07-29T02:50:51;100810.80;;;12.30
68127;BMP180;54931;52.098;21.006;2022-07-29T02:53:26;100810.00;;;12.20
68127;BMP180;54931;52.098;21.006;2022-07-29T02:56:00;100804.20;;;12.20
68127;BMP180;54931;52.098;21.006;2022-07-29T02:58:58;100810.60;;;12.20
68127;BMP180;54931;52.098;21.006;2022-07-29T03:01:30;100811.40;;;12.30
68127;BMP180;54931;52.098;21.006;2022-07-29T03:04:03;100812.60;;;12.22
68127;BMP180;54931;52.098;21.006;2022-07-29T03:06:33;100801.20;;;12.30
68127;BMP180;54931;52.098;21.006;2022-07-29T03:09:02;100804.60;;;12.30
68127;BMP180;54931;52.098;21.006;2022-07-29T03:11:30;100805.00;;;12.40
68127;BMP180;54931;52.098;21.006;2022-07-29T03:13:57;100805.80;;;12.50
68127;BMP180;54931;52.098;21.006;2022-07-29T03:16:25;100806.40;;;12.50
68127;BMP180;54931;52.098;21.006;2022-07-29T03:18:54;100803.40;;;12.52
68127;BMP180;54931;52.098;21.006;2022-07-29T03:21:21;100808.00;;;12.60
68127;BMP180;54931;52.098;21.006;2022-07-29T03:23:48;100808.60;;;12.64
68127;BMP180;54931;52.098;21.006;2022-07-29T03:26:16;100812.00;;;12.74
68127;BMP180;54931;52.098;21.006;2022-07-29T03:28:43;100814.00;;;12.88
68127;BMP180;54931;52.098;21.006;2022-07-29T03:31:11;100807.40;;;12.90
68127;BMP180;54931;52.098;21.006;2022-07-29T03:33:38;100809.40;;;12.90
68127;BMP180;54931;52.098;21.006;2022-07-29T03:36:05;100812.40;;;12.98
68127;BMP180;54931;52.098;21.006;2022-07-29T03:38:36;100812.20;;;13.10
68127;BMP180;54931;52.098;21.006;2022-07-29T03:41:10;100807.40;;;13.20
68127;BMP180;54931;52.098;21.006;2022-07-29T03:43:42;100805.00;;;13.30
68127;BMP180;54931;52.098;21.006;2022-07-29T03:46:13;100804.40;;;13.38
68127;BMP180;54931;52.098;21.006;2022-07-29T03:48:48;100808.40;;;13.34
68127;BMP180;54931;52.098;21.006;2022-07-29T03:51:16;100812.00;;;13.40
68127;BMP180;54931;52.098;21.006;2022-07-29T03:53:44;100820.00;;;13.50
68127;BMP180;54931;52.098;21.006;2022-07-29T03:56:16;100813.80;;;13.62
68127;BMP180;54931;52.098;21.006;2022-07-29T03:58:51;100809.60;;;13.70
68127;BMP180;54931;52.098;21.006;2022-07-29T04:01:20;100811.20;;;13.80
68127;BMP180;54931;52.098;21.006;2022-07-29T04:03:48;100811.80;;;13.80
68127;BMP180;54931;52.098;21.006;2022-07-29T04:06:16;100811.20;;;13.90
68127;BMP180;54931;52.098;21.006;2022-07-29T04:08:43;100811.00;;;14.00
68127;BMP180;54931;52.098;21.006;2022-07-29T04:11:11;100813.60;;;14.20
68127;BMP180;54931;52.098;21.006;2022-07-29T04:13:38;100812.60;;;14.30
68127;BMP180;54931;52.098;21.006;2022-07-29T04:16:05;100817.20;;;14.40
68127;BMP180;54931;52.098;21.006;2022-07-29T04:18:33;100813.60;;;14.50
68127;BMP180;54931;52.098;21.006;2022-07-29T04:21:00;100813.40;;;14.76
68127;BMP180;54931;52.098;21.006;2022-07-29T04:23:30;100817.60;;;15.10
68127;BMP180;54931;52.098;21.006;2022-07-29T04:26:00;100818.20;;;15.50
68127;BMP180;54931;52.098;21.006;2022-07-29T04:28:28;100815.00;;;15.76
68127;BMP180;54931;52.098;21.006;2022-07-29T04:30:55;100813.60;;;16.00
68127;BMP180;54931;52.098;21.006;2022-07-29T04:33:22;100814.80;;;16.20
68127;BMP180;54931;52.098;21.006;2022-07-29T04:35:50;100817.60;;;16.50
68127;BMP180;54931;52.098;21.006;2022-07-29T04:38:17;100819.80;;;16.80
68127;BMP180;54931;52.098;21.006;2022-07-29T04:40:44;100821.60;;;17.06
68127;BMP180;54931;52.098;21.006;2022-07-29T04:43:12;100822.20;;;17.34
68127;BMP180;54931;52.098;21.006;2022-07-29T04:45:39;100818.00;;;17.50
68127;BMP180;54931;52.098;21.006;2022-07-29T04:48:07;100821.80;;;17.70
68127;BMP180;54931;52.098;21.006;2022-07-29T04:50:37;100828.40;;;17.80
68127;BMP180;54931;52.098;21.006;2022-07-29T04:53:04;100824.80;;;18.00
68127;BMP180;54931;52.098;21.006;2022-07-29T04:55:32;100824.60;;;18.14
68127;BMP180;54931;52.098;21.006;2022-07-29T04:57:59;100828.40;;;18.20
68127;BMP180;54931;52.098;21.006;2022-07-29T05:00:27;100828.00;;;18.28
68127;BMP180;54931;52.098;21.006;2022-07-29T05:02:55;100832.20;;;18.54
68127;BMP180;54931;52.098;21.006;2022-07-29T05:05:25;100832.20;;;18.70
68127;BMP180;54931;52.098;21.006;2022-07-29T05:07:52;100827.80;;;18.98
68127;BMP180;54931;52.098;21.006;2022-07-29T05:10:19;100836.00;;;19.14
68127;BMP180;54931;52.098;21.006;2022-07-29T05:12:47;100830.80;;;19.28
68127;BMP180;54931;52.098;21.006;2022-07-29T05:15:14;100838.00;;;19.30
68127;BMP180;54931;52.098;21.006;2022-07-29T05:17:42;100847.00;;;19.24
68127;BMP180;54931;52.098;21.006;2022-07-29T05:20:09;100846.60;;;19.40
68127;BMP180;54931;52.098;21.006;2022-07-29T05:22:37;100849.00;;;19.50
68127;BMP180;54931;52.098;21.006;2022-07-29T05:25:05;100846.40;;;19.60
68127;BMP180;54931;52.098;21.006;2022-07-29T05:27:32;100850.20;;;19.70
68127;BMP180;54931;52.098;21.006;2022-07-29T05:29:59;100853.40;;;19.64
68127;BMP180;54931;52.098;21.006;2022-07-29T05:32:26;100853.60;;;19.92
68127;BMP180;54931;52.098;21.006;2022-07-29T05:34:54;100850.60;;;20.30
68127;BMP180;54931;52.098;21.006;2022-07-29T05:37:21;100850.20;;;20.40
68127;BMP180;54931;52.098;21.006;2022-07-29T05:39:49;100849.20;;;20.58
68127;BMP180;54931;52.098;21.006;2022-07-29T05:42:16;100847.60;;;20.60
68127;BMP180;54931;52.098;21.006;2022-07-29T05:44:43;100848.60;;;20.68
68127;BMP180;54931;52.098;21.006;2022-07-29T05:47:11;100849.00;;;20.84
68127;BMP180;54931;52.098;21.006;2022-07-29T05:49:38;100844.00;;;20.94
68127;BMP180;54931;52.098;21.006;2022-07-29T05:52:05;100838.40;;;21.00
68127;BMP180;54931;52.098;21.006;2022-07-29T05:54:33;100835.00;;;21.14
68127;BMP180;54931;52.098;21.006;2022-07-29T05:57:02;100840.40;;;21.30
68127;BMP180;54931;52.098;21.006;2022-07-29T05:59:30;100836.80;;;21.30
68127;BMP180;54931;52.098;21.006;2022-07-29T06:01:57;100836.20;;;21.32
68127;BMP180;54931;52.098;21.006;2022-07-29T06:04:25;100838.20;;;21.40
68127;BMP180;54931;52.098;21.006;2022-07-29T06:06:52;100838.80;;;21.40
68127;BMP180;54931;52.098;21.006;2022-07-29T06:09:19;100835.60;;;21.50
68127;BMP180;54931;52.098;21.006;2022-07-29T06:11:46;100832.40;;;21.40
68127;BMP180;54931;52.098;21.006;2022-07-29T06:14:14;100835.40;;;21.50
68127;BMP180;54931;52.098;21.006;2022-07-29T06:16:41;100834.80;;;21.42
68127;BMP180;54931;52.098;21.006;2022-07-29T06:19:09;100832.20;;;21.76
68127;BMP180;54931;52.098;21.006;2022-07-29T06:21:40;100832.40;;;21.98
68127;BMP180;54931;52.098;21.006;2022-07-29T06:24:15;100833.20;;;21.86
68127;BMP180;54931;52.098;21.006;2022-07-29T06:26:43;100833.80;;;22.00
68127;BMP180;54931;52.098;21.006;2022-07-29T06:29:11;100836.40;;;22.00
68127;BMP180;54931;52.098;21.006;2022-07-29T06:31:39;100837.20;;;22.06
68127;BMP180;54931;52.098;21.006;2022-07-29T06:34:06;100841.80;;;22.36
68127;BMP180;54931;52.098;21.006;2022-07-29T06:36:37;100840.40;;;22.54
68127;BMP180;54931;52.098;21.006;2022-07-29T06:39:06;100836.20;;;22.62
68127;BMP180;54931;52.098;21.006;2022-07-29T06:41:34;100835.20;;;22.80
68127;BMP180;54931;52.098;21.006;2022-07-29T06:44:02;100839.40;;;22.86
68127;BMP180;54931;52.098;21.006;2022-07-29T06:46:31;100844.80;;;23.08
68127;BMP180;54931;52.098;21.006;2022-07-29T06:48:59;100843.40;;;23.22
68127;BMP180;54931;52.098;21.006;2022-07-29T06:51:28;100837.80;;;23.30
68127;BMP180;54931;52.098;21.006;2022-07-29T06:53:56;100835.20;;;23.30
68127;BMP180;54931;52.098;21.006;2022-07-29T06:56:27;100841.80;;;23.30
68127;BMP180;54931;52.098;21.006;2022-07-29T06:58:55;100840.40;;;23.30
68127;BMP180;54931;52.098;21.006;2022-07-29T07:01:22;100846.20;;;23.50
68127;BMP180;54931;52.098;21.006;2022-07-29T07:03:49;100846.20;;;23.50
68127;BMP180;54931;52.098;21.006;2022-07-29T07:06:17;100845.60;;;23.50
68127;BMP180;54931;52.098;21.006;2022-07-29T07:08:44;100842.40;;;23.48
68127;BMP180;54931;52.098;21.006;2022-07-29T07:11:12;100840.80;;;23.50
68127;BMP180;54931;52.098;21.006;2022-07-29T07:13:39;100842.00;;;23.50
68127;BMP180;54931;52.098;21.006;2022-07-29T07:16:06;100837.00;;;23.64
68127;BMP180;54931;52.098;21.006;2022-07-29T07:18:34;100840.40;;;23.80
68127;BMP180;54931;52.098;21.006;2022-07-29T07:21:01;100842.80;;;23.98
68127;BMP180;54931;52.098;21.006;2022-07-29T07:23:28;100846.80;;;24.00
68127;BMP180;54931;52.098;21.006;2022-07-29T07:25:55;100841.20;;;24.08
68127;BMP180;54931;52.098;21.006;2022-07-29T07:28:23;100842.60;;;24.18
68127;BMP180;54931;52.098;21.006;2022-07-29T07:30:50;100843.20;;;24.28
68127;BMP180;54931;52.098;21.006;2022-07-29T07:33:17;100837.40;;;24.30
68127;BMP180;54931;52.098;21.006;2022-07-29T07:35:45;100841.60;;;24.36
68127;BMP180;54931;52.098;21.006;2022-07-29T07:38:13;100843.20;;;24.38
68127;BMP180;54931;52.098;21.006;2022-07-29T07:40:41;100844.40;;;24.42
68127;BMP180;54931;52.098;21.006;2022-07-29T07:43:09;100848.80;;;24.30
68127;BMP180;54931;52.098;21.006;2022-07-29T07:45:36;100847.00;;;24.66
68127;BMP180;54931;52.098;21.006;2022-07-29T07:48:04;100848.40;;;24.80
68127;BMP180;54931;52.098;21.006;2022-07-29T07:50:32;100846.40;;;24.74
68127;BMP180;54931;52.098;21.006;2022-07-29T07:52:59;100850.40;;;25.00
68127;BMP180;54931;52.098;21.006;2022-07-29T07:55:28;100853.40;;;25.10
68127;BMP180;54931;52.098;21.006;2022-07-29T07:57:56;100850.20;;;25.20
68127;BMP180;54931;52.098;21.006;2022-07-29T08:00:23;100847.80;;;24.82
68127;BMP180;54931;52.098;21.006;2022-07-29T08:02:50;100848.00;;;25.00
68127;BMP180;54931;52.098;21.006;2022-07-29T08:05:18;100846.60;;;25.08
68127;BMP180;54931;52.098;21.006;2022-07-29T08:07:46;100845.80;;;25.30
68127;BMP180;54931;52.098;21.006;2022-07-29T08:10:17;100845.80;;;25.48
68127;BMP180;54931;52.098;21.006;2022-07-29T08:13:07;100844.00;;;25.70
68127;BMP180;54931;52.098;21.006;2022-07-29T08:15:35;100847.80;;;25.82
68127;BMP180;54931;52.098;21.006;2022-07-29T08:18:03;100851.40;;;26.00
68127;BMP180;54931;52.098;21.006;2022-07-29T08:20:31;100852.40;;;25.90
68127;BMP180;54931;52.098;21.006;2022-07-29T08:23:01;100847.00;;;25.86
68127;BMP180;54931;52.098;21.006;2022-07-29T08:25:29;100847.80;;;25.80
68127;BMP180;54931;52.098;21.006;2022-07-29T08:27:57;100850.80;;;25.60
68127;BMP180;54931;52.098;21.006;2022-07-29T08:30:25;100848.00;;;25.58
68127;BMP180;54931;52.098;21.006;2022-07-29T08:32:52;100848.60;;;25.80
68127;BMP180;54931;52.098;21.006;2022-07-29T08:35:22;100842.20;;;25.90
68127;BMP180;54931;52.098;21.006;2022-07-29T08:37:51;100843.60;;;26.04
68127;BMP180;54931;52.098;21.006;2022-07-29T08:40:20;100846.60;;;26.18
68127;BMP180;54931;52.098;21.006;2022-07-29T08:42:47;100846.60;;;26.30
68127;BMP180;54931;52.098;21.006;2022-07-29T08:45:25;100844.60;;;26.56
68127;BMP180;54931;52.098;21.006;2022-07-29T08:47:57;100845.00;;;26.44
68127;BMP180;54931;52.098;21.006;2022-07-29T08:50:27;100844.20;;;26.12
68127;BMP180;54931;52.098;21.006;2022-07-29T08:53:28;100846.40;;;26.34
68127;BMP180;54931;52.098;21.006;2022-07-29T08:55:57;100838.60;;;26.40
68127;BMP180;54931;52.098;21.006;2022-07-29T08:58:27;100834.80;;;26.50
68127;BMP180;54931;52.098;21.006;2022-07-29T09:01:02;100835.80;;;26.52
68127;BMP180;54931;52.098;21.006;2022-07-29T09:03:32;100834.60;;;26.70
68127;BMP180;54931;52.098;21.006;2022-07-29T09:06:03;100833.80;;;26.76
68127;BMP180;54931;52.098;21.006;2022-07-29T09:08:33;100835.40;;;27.04
68127;BMP180;54931;52.098;21.006;2022-07-29T09:11:02;100828.60;;;27.16
68127;BMP180;54931;52.098;21.006;2022-07-29T09:13:30;100830.00;;;27.02
68127;BMP180;54931;52.098;21.006;2022-07-29T09:15:57;100830.60;;;26.96
68127;BMP180;54931;52.098;21.006;2022-07-29T09:18:42;100832.80;;;26.86
68127;BMP180;54931;52.098;21.006;2022-07-29T09:21:16;100831.60;;;27.26
68127;BMP180;54931;52.098;21.006;2022-07-29T09:24:14;100835.00;;;27.02
68127;BMP180;54931;52.098;21.006;2022-07-29T09:26:45;100826.80;;;27.04
68127;BMP180;54931;52.098;21.006;2022-07-29T09:29:17;100828.00;;;26.90
68127;BMP180;54931;52.098;21.006;2022-07-29T09:31:48;100825.20;;;26.86
68127;BMP180;54931;52.098;21.006;2022-07-29T09:34:23;100822.00;;;27.02
68127;BMP180;54931;52.098;21.006;2022-07-29T09:36:53;100815.60;;;27.00
68127;BMP180;54931;52.098;21.006;2022-07-29T09:39:39;100811.60;;;27.18
68127;BMP180;54931;52.098;21.006;2022-07-29T09:42:13;100821.20;;;27.40
68127;BMP180;54931;52.098;21.006;2022-07-29T09:44:47;100818.20;;;27.32
68127;BMP180;54931;52.098;21.006;2022-07-29T09:47:18;100822.20;;;27.70
68127;BMP180;54931;52.098;21.006;2022-07-29T09:49:59;100815.40;;;27.70
68127;BMP180;54931;52.098;21.006;2022-07-29T09:52:29;100816.40;;;27.70
68127;BMP180;54931;52.098;21.006;2022-07-29T09:55:09;100817.00;;;27.80
68127;BMP180;54931;52.098;21.006;2022-07-29T09:57:37;100821.80;;;27.82
68127;BMP180;54931;52.098;21.006;2022-07-29T10:00:09;100820.60;;;27.44
68127;BMP180;54931;52.098;21.006;2022-07-29T10:02:41;100821.80;;;27.02
68127;BMP180;54931;52.098;21.006;2022-07-29T10:05:22;100821.00;;;26.80
68127;BMP180;54931;52.098;21.006;2022-07-29T10:07:54;100817.60;;;26.60
68127;BMP180;54931;52.098;21.006;2022-07-29T10:13:00;100807.00;;;26.30
68127;BMP180;54931;52.098;21.006;2022-07-29T10:15:31;100812.20;;;26.30
68127;BMP180;54931;52.098;21.006;2022-07-29T10:17:59;100809.00;;;25.96
68127;BMP180;54931;52.098;21.006;2022-07-29T10:20:27;100807.20;;;25.76
68127;BMP180;54931;52.098;21.006;2022-07-29T10:22:55;100799.20;;;25.70
68127;BMP180;54931;52.098;21.006;2022-07-29T10:25:24;100791.00;;;25.54
68127;BMP180;54931;52.098;21.006;2022-07-29T10:27:53;100791.60;;;25.56
68127;BMP180;54931;52.098;21.006;2022-07-29T10:30:24;100792.00;;;25.60
68127;BMP180;54931;52.098;21.006;2022-07-29T10:44:26;100782.00;;;27.00
68127;BMP180;54931;52.098;21.006;2022-07-29T10:46:54;100787.00;;;26.98
68127;BMP180;54931;52.098;21.006;2022-07-29T10:49:25;100788.60;;;27.04
68127;BMP180;54931;52.098;21.006;2022-07-29T10:52:04;100787.00;;;27.08
68127;BMP180;54931;52.098;21.006;2022-07-29T10:54:43;100776.80;;;27.10
68127;BMP180;54931;52.098;21.006;2022-07-29T10:59:45;100776.00;;;27.10
68127;BMP180;54931;52.098;21.006;2022-07-29T11:05:07;100777.00;;;26.88
68127;BMP180;54931;52.098;21.006;2022-07-29T11:07:38;100766.40;;;26.46
68127;BMP180;54931;52.098;21.006;2022-07-29T11:15:10;100776.20;;;26.20
68127;BMP180;54931;52.098;21.006;2022-07-29T11:20:44;100763.60;;;26.40
68127;BMP180;54931;52.098;21.006;2022-07-29T11:23:33;100767.40;;;26.36
68127;BMP180;54931;52.098;21.006;2022-07-29T11:26:15;100771.80;;;26.26
68127;BMP180;54931;52.098;21.006;2022-07-29T11:31:45;100767.00;;;26.20
68127;BMP180;54931;52.098;21.006;2022-07-29T11:39:40;100760.80;;;25.90
68127;BMP180;54931;52.098;21.006;2022-07-29T11:45:11;100754.20;;;26.04
68127;BMP180;54931;52.098;21.006;2022-07-29T11:52:55;100747.40;;;26.10
68127;BMP180;54931;52.098;21.006;2022-07-29T11:55:24;100752.00;;;26.10
68127;BMP180;54931;52.098;21.006;2022-07-29T11:57:56;100749.00;;;26.10
68127;BMP180;54931;52.098;21.006;2022-07-29T12:00:36;100740.80;;;26.38
68127;BMP180;54931;52.098;21.006;2022-07-29T12:03:08;100747.40;;;26.40
68127;BMP180;54931;52.098;21.006;2022-07-29T12:05:44;100749.80;;;26.10
68127;BMP180;54931;52.098;21.006;2022-07-29T12:08:20;100742.00;;;25.90
68127;BMP180;54931;52.098;21.006;2022-07-29T12:10:51;100747.20;;;25.84
68127;BMP180;54931;52.098;21.006;2022-07-29T12:13:21;100740.60;;;25.80
68127;BMP180;54931;52.098;21.006;2022-07-29T12:15:57;100738.40;;;25.66
68127;BMP180;54931;52.098;21.006;2022-07-29T12:18:26;100732.80;;;25.50
68127;BMP180;54931;52.098;21.006;2022-07-29T12:21:01;100737.60;;;25.74
68127;BMP180;54931;52.098;21.006;2022-07-29T12:23:32;100743.40;;;26.00
68127;BMP180;54931;52.098;21.006;2022-07-29T12:26:04;100741.40;;;25.96
68127;BMP180;54931;52.098;21.006;2022-07-29T12:28:37;100737.00;;;25.88
68127;BMP180;54931;52.098;21.006;2022-07-29T12:31:13;100736.40;;;25.80
68127;BMP180;54931;52.098;21.006;2022-07-29T12:33:41;100735.60;;;25.88
68127;BMP180;54931;52.098;21.006;2022-07-29T12:36:09;100726.40;;;26.02
68127;BMP180;54931;52.098;21.006;2022-07-29T12:38:40;100723.00;;;26.20
68127;BMP180;54931;52.098;21.006;2022-07-29T12:41:09;100720.60;;;26.46
68127;BMP180;54931;52.098;21.006;2022-07-29T12:43:36;100721.00;;;26.66
68127;BMP180;54931;52.098;21.006;2022-07-29T12:46:14;100717.60;;;26.54
68127;BMP180;54931;52.098;21.006;2022-07-29T12:48:43;100726.60;;;26.64
68127;BMP180;54931;52.098;21.006;2022-07-29T12:51:12;100721.20;;;26.70
68127;BMP180;54931;52.098;21.006;2022-07-29T12:53:41;100724.00;;;26.64
68127;BMP180;54931;52.098;21.006;2022-07-29T12:56:28;100729.00;;;26.50
68127;BMP180;54931;52.098;21.006;2022-07-29T12:58:55;100721.80;;;26.40
68127;BMP180;54931;52.098;21.006;2022-07-29T13:01:23;100717.00;;;26.30
68127;BMP180;54931;52.098;21.006;2022-07-29T13:03:54;100713.60;;;26.26
68127;BMP180;54931;52.098;21.006;2022-07-29T13:09:04;100706.40;;;26.40
68127;BMP180;54931;52.098;21.006;2022-07-29T13:14:01;100704.20;;;26.44
68127;BMP180;54931;52.098;21.006;2022-07-29T13:16:29;100698.60;;;26.44
68127;BMP180;54931;52.098;21.006;2022-07-29T13:19:12;100696.80;;;26.40
68127;BMP180;54931;52.098;21.006;2022-07-29T13:21:40;100700.60;;;26.26
68127;BMP180;54931;52.098;21.006;2022-07-29T13:24:08;100701.20;;;26.10
68127;BMP180;54931;52.098;21.006;2022-07-29T13:26:40;100691.60;;;25.98
68127;BMP180;54931;52.098;21.006;2022-07-29T13:29:08;100694.20;;;26.18
68127;BMP180;54931;52.098;21.006;2022-07-29T13:31:35;100694.20;;;26.34
68127;BMP180;54931;52.098;21.006;2022-07-29T13:34:03;100695.20;;;26.50
68127;BMP180;54931;52.098;21.006;2022-07-29T13:36:31;100686.40;;;26.60
68127;BMP180;54931;52.098;21.006;2022-07-29T13:38:59;100684.80;;;26.50
68127;BMP180;54931;52.098;21.006;2022-07-29T13:41:28;100685.60;;;26.50
68127;BMP180;54931;52.098;21.006;2022-07-29T13:43:56;100684.20;;;26.48
68127;BMP180;54931;52.098;21.006;2022-07-29T13:46:23;100688.00;;;26.40
68127;BMP180;54931;52.098;21.006;2022-07-29T13:48:51;100688.80;;;26.36
68127;BMP180;54931;52.098;21.006;2022-07-29T13:51:18;100681.20;;;26.40
68127;BMP180;54931;52.098;21.006;2022-07-29T13:53:46;100678.20;;;26.32
68127;BMP180;54931;52.098;21.006;2022-07-29T13:56:13;100675.00;;;26.50
68127;BMP180;54931;52.098;21.006;2022-07-29T13:58:41;100673.20;;;26.58
68127;BMP180;54931;52.098;21.006;2022-07-29T14:01:08;100674.60;;;26.56
68127;BMP180;54931;52.098;21.006;2022-07-29T14:03:36;100667.60;;;26.48
68127;BMP180;54931;52.098;21.006;2022-07-29T14:06:07;100676.00;;;26.20
68127;BMP180;54931;52.098;21.006;2022-07-29T14:08:34;100674.80;;;26.20
68127;BMP180;54931;52.098;21.006;2022-07-29T14:11:02;100667.60;;;26.22
68127;BMP180;54931;52.098;21.006;2022-07-29T14:13:30;100667.40;;;26.32
68127;BMP180;54931;52.098;21.006;2022-07-29T14:15:57;100661.60;;;26.40
68127;BMP180;54931;52.098;21.006;2022-07-29T14:18:25;100661.20;;;26.54
68127;BMP180;54931;52.098;21.006;2022-07-29T14:20:52;100662.60;;;26.60
68127;BMP180;54931;52.098;21.006;2022-07-29T14:23:20;100658.80;;;26.50
68127;BMP180;54931;52.098;21.006;2022-07-29T14:25:48;100660.60;;;26.40
68127;BMP180;54931;52.098;21.006;2022-07-29T14:28:16;100660.80;;;26.40
68127;BMP180;54931;52.098;21.006;2022-07-29T14:30:44;100658.20;;;26.32
68127;BMP180;54931;52.098;21.006;2022-07-29T14:33:11;100662.00;;;26.22
68127;BMP180;54931;52.098;21.006;2022-07-29T14:35:40;100655.40;;;26.26
68127;BMP180;54931;52.098;21.006;2022-07-29T14:38:07;100652.40;;;26.20
68127;BMP180;54931;52.098;21.006;2022-07-29T14:40:35;100647.60;;;26.30
68127;BMP180;54931;52.098;21.006;2022-07-29T14:43:03;100647.40;;;26.20
68127;BMP180;54931;52.098;21.006;2022-07-29T14:45:32;100645.80;;;26.00
68127;BMP180;54931;52.098;21.006;2022-07-29T14:47:59;100646.00;;;25.90
68127;BMP180;54931;52.098;21.006;2022-07-29T14:50:27;100646.60;;;25.88
68127;BMP180;54931;52.098;21.006;2022-07-29T14:52:54;100638.60;;;25.92
68127;BMP180;54931;52.098;21.006;2022-07-29T14:55:22;100648.40;;;26.10
68127;BMP180;54931;52.098;21.006;2022-07-29T14:57:50;100644.80;;;26.16
68127;BMP180;54931;52.098;21.006;2022-07-29T15:00:18;100645.40;;;26.22